Time;durP1;ratioP1;P1;durP2;ratioP2;P2;SDS_P1;SDS_P2;PMS_P1;PMS_P2;Temp;Humidity;BMP_temperature;BMP_pressure;BME280_temperature;BME280_humidity;BME280_pressure;Samples;Min_cycle;Max_cycle;Signal;HPM_P1;HPM_P2
2024/04/11 00:02:53;;;;;;;18.80;7.00;;;;;;;10.78;94.58;100511.33;269961;1267;22522;-86
2024/04/11 00:08:56;;;;;;;16.90;7.90;;;;;;;10.78;94.10;100509.43;269883;1267;22544;-92
2024/04/11 00:15:00;;;;;;;12.30;6.50;;;;;;;10.70;94.05;100508.93;270082;1269;22571;-87
2024/04/11 00:21:04;;;;;;;9.90;6.40;;;;;;;10.71;95.18;100516.56;269980;1269;22601;-89
2024/04/11 00:27:28;;;;;;;12.60;6.60;;;;;;;10.73;94.90;100524.12;270066;1267;23264;-87
2024/04/11 00:40:38;;;;;;;11.40;6.00;;;;;;;10.66;95.15;100517.16;270647;1267;22728;-87
2024/04/11 00:46:54;;;;;;;12.30;6.50;;;;;;;10.66;95.58;100522.24;270494;1268;22569;-85
2024/04/11 00:53:30;;;;;;;12.80;7.30;;;;;;;10.63;95.76;100522.52;270534;1264;23815;-86
2024/04/11 01:00:09;;;;;;;13.20;7.20;;;;;;;10.63;96.17;100522.05;270229;1267;22999;-90
2024/04/11 01:07:10;;;;;;;13.70;7.60;;;;;;;10.62;96.47;100512.21;270751;1267;23243;-88
2024/04/11 01:14:14;;;;;;;12.20;7.10;;;;;;;10.59;95.91;100502.04;270504;1267;22710;-91
2024/04/11 01:21:46;;;;;;;13.90;8.00;;;;;;;10.58;96.28;100502.16;271264;1267;22574;-90
2024/04/11 01:28:41;;;;;;;15.50;7.10;;;;;;;10.57;96.53;100497.13;270987;1267;23675;-88
2024/04/11 01:36:12;;;;;;;12.20;7.50;;;;;;;10.59;96.84;100500.00;270914;1267;22526;-88
2024/04/11 01:43:41;;;;;;;14.60;7.10;;;;;;;10.57;96.73;100505.33;270890;1267;22584;-87
2024/04/11 01:57:18;;;;;;;12.10;6.80;;;;;;;10.57;96.92;100511.05;265212;1299;547052;-87
2024/04/11 02:04:36;;;;;;;13.70;7.20;;;;;;;10.53;97.25;100517.77;268764;1264;22695;-89
2024/04/11 02:10:37;;;;;;;11.20;6.20;;;;;;;10.48;97.42;100517.92;268794;1277;151884;-82
2024/04/11 02:16:38;;;;;;;11.60;6.90;;;;;;;10.48;97.63;100516.74;272049;1282;22316;-81
2024/04/11 02:22:39;;;;;;;8.70;5.60;;;;;;;10.40;97.54;100512.21;271091;1282;22678;-82
2024/04/11 02:28:40;;;;;;;16.40;7.30;;;;;;;10.36;98.25;100512.08;271593;1275;22759;-82
2024/04/11 02:34:41;;;;;;;12.90;7.40;;;;;;;10.35;98.44;100512.99;271454;1282;23704;-81
2024/04/11 02:40:42;;;;;;;10.40;6.80;;;;;;;10.35;98.89;100514.84;271122;1282;22440;-81
2024/04/11 02:46:44;;;;;;;14.30;8.00;;;;;;;10.34;99.61;100521.32;270886;1282;25313;-82
2024/04/11 02:52:59;;;;;;;13.00;8.00;;;;;;;10.31;99.73;100518.71;268472;1282;23528;-80
2024/04/11 02:59:35;;;;;;;16.30;9.70;;;;;;;10.25;99.72;100515.39;268725;1282;22581;-81
2024/04/11 03:05:36;;;;;;;22.00;8.70;;;;;;;10.24;99.73;100512.75;268690;1272;22563;-81
2024/04/11 03:11:38;;;;;;;10.80;7.30;;;;;;;10.27;99.94;100514.64;268640;1282;23382;-81
2024/04/11 03:17:39;;;;;;;21.60;10.50;;;;;;;10.27;100.00;100511.29;269251;1282;23947;-81
2024/04/11 03:23:40;;;;;;;12.10;7.70;;;;;;;10.26;100.00;100507.20;271301;1282;22468;-81
2024/04/11 03:29:43;;;;;;;13.50;8.40;;;;;;;10.24;100.00;100509.24;271103;1282;23562;-82
2024/04/11 03:35:55;;;;;;;17.70;10.30;;;;;;;10.24;100.00;100512.21;270211;1282;22576;-81
2024/04/11 03:41:55;;;;;;;14.30;9.20;;;;;;;10.23;100.00;100510.52;270416;1281;22517;-81
2024/04/11 03:47:57;;;;;;;16.80;8.90;;;;;;;10.22;100.00;100505.70;270139;1282;22304;-83
2024/04/11 03:53:58;;;;;;;12.80;8.80;;;;;;;10.25;100.00;100503.78;269926;1282;22416;-81
2024/04/11 04:00:24;;;;;;;12.80;9.30;;;;;;;10.26;100.00;100509.29;271209;1282;22367;-81
2024/04/11 04:07:01;;;;;;;17.20;10.20;;;;;;;10.27;100.00;100509.35;270797;1282;22730;-82
2024/04/11 04:13:04;;;;;;;16.20;10.20;;;;;;;10.21;100.00;100510.60;272131;1275;23003;-82
2024/04/11 04:19:43;;;;;;;18.50;9.90;;;;;;;10.21;100.00;100506.30;270006;1271;22569;-81
2024/04/11 04:25:47;;;;;;;17.00;9.70;;;;;;;10.21;100.00;100512.56;268839;1275;23221;-81
2024/04/11 04:32:05;;;;;;;15.40;8.70;;;;;;;10.19;100.00;100516.64;270753;1275;22543;-81
2024/04/11 04:38:06;;;;;;;16.30;9.40;;;;;;;10.21;100.00;100518.73;268835;1275;23817;-81
2024/04/11 04:44:07;;;;;;;16.60;9.80;;;;;;;10.23;100.00;100529.60;268714;1275;22569;-81
2024/04/11 04:50:08;;;;;;;13.60;9.20;;;;;;;10.24;100.00;100537.39;269775;1275;22572;-82
2024/04/11 04:56:18;;;;;;;18.90;10.40;;;;;;;10.28;100.00;100537.91;269554;1276;22562;-81
2024/04/11 05:02:39;;;;;;;16.80;10.20;;;;;;;10.31;100.00;100539.84;270866;1276;22588;-81
2024/04/11 05:08:53;;;;;;;18.80;10.10;;;;;;;10.39;100.00;100541.99;269190;1275;22559;-82
2024/04/11 05:15:18;;;;;;;18.80;9.90;;;;;;;10.48;100.00;100544.60;270886;1276;22595;-85
2024/04/11 05:21:23;;;;;;;17.40;10.30;;;;;;;10.56;100.00;100550.69;271223;1276;23421;-82
2024/04/11 05:28:00;;;;;;;14.90;9.90;;;;;;;10.65;100.00;100548.88;270638;1275;24314;-82
2024/04/11 05:34:07;;;;;;;17.90;12.00;;;;;;;10.79;100.00;100554.85;270414;1275;23309;-81
2024/04/11 05:40:08;;;;;;;;;;;;;;;10.91;100.00;100555.88;272852;1270;22473;-82
2024/04/11 05:46:30;;;;;;;20.90;11.30;;;;;;;11.03;100.00;100562.02;272956;1270;22504;-82
2024/04/11 05:52:31;;;;;;;23.20;11.80;;;;;;;11.14;100.00;100565.22;272131;1270;22604;-83
2024/04/11 05:58:33;;;;;;;21.90;12.20;;;;;;;11.24;100.00;100571.48;272373;1270;22443;-82
2024/04/11 06:04:36;;;;;;;27.00;13.30;;;;;;;11.33;100.00;100579.48;271752;1270;22365;-82
2024/04/11 06:10:37;;;;;;;23.50;13.70;;;;;;;11.41;100.00;100578.08;272683;1264;22479;-83
2024/04/11 06:16:39;;;;;;;20.90;12.10;;;;;;;11.53;100.00;100578.27;271963;1270;22635;-82
2024/04/11 06:22:49;;;;;;;18.20;11.80;;;;;;;11.70;100.00;100582.36;270656;1270;23143;-82
2024/04/11 06:28:51;;;;;;;19.00;11.70;;;;;;;11.79;100.00;100593.08;270812;1270;24258;-83
2024/04/11 06:34:53;;;;;;;20.30;11.10;;;;;;;11.85;99.86;100605.20;271601;1270;22268;-83
2024/04/11 06:40:55;;;;;;;17.40;9.70;;;;;;;11.97;99.79;100611.19;271870;1270;22925;-83
2024/04/11 06:47:21;;;;;;;17.30;9.50;;;;;;;12.04;99.42;100609.08;273109;1270;22386;-82
2024/04/11 06:54:03;;;;;;;16.20;7.60;;;;;;;12.14;99.15;100610.47;272823;1270;22315;-83
2024/04/11 07:00:12;;;;;;;14.10;9.30;;;;;;;12.24;98.31;100615.80;273024;1270;22298;-83
2024/04/11 07:06:46;;;;;;;15.20;8.40;;;;;;;12.33;97.67;100614.42;272870;1270;22306;-84
2024/04/11 07:12:50;;;;;;;11.80;7.20;;;;;;;12.43;97.21;100610.88;271645;1269;23455;-83
2024/04/11 07:18:54;;;;;;;12.20;6.30;;;;;;;12.54;96.62;100612.63;273127;1269;22626;-81
2024/04/11 07:24:56;;;;;;;11.70;6.90;;;;;;;12.67;96.07;100617.00;271638;1270;22317;-82
2024/04/11 07:30:57;;;;;;;10.60;6.90;;;;;;;12.76;95.55;100627.99;272917;1270;22380;-84
2024/04/11 07:36:59;;;;;;;13.20;6.90;;;;;;;12.92;94.99;100626.22;272462;1270;23627;-83
2024/04/11 07:43:08;;;;;;;12.70;6.70;;;;;;;13.00;94.09;100629.38;271846;1269;22482;-83
2024/04/11 07:49:10;;;;;;;11.90;5.90;;;;;;;13.13;93.16;100632.11;271393;1269;23411;-82
2024/04/11 07:55:14;;;;;;;11.50;7.30;;;;;;;13.28;92.49;100639.97;270316;1270;22264;-82
2024/04/11 08:01:16;;;;;;;12.70;7.10;;;;;;;13.37;90.77;100642.25;270107;1267;22557;-84
2024/04/11 08:07:17;;;;;;;13.90;6.50;;;;;;;13.34;90.33;100641.16;270077;1265;23531;-82
2024/04/11 08:13:54;;;;;;;13.70;7.00;;;;;;;13.45;90.10;100640.73;271470;1270;22570;-83
2024/04/11 08:19:55;;;;;;;11.30;7.20;;;;;;;13.54;88.58;100650.02;271540;1267;22924;-82
2024/04/11 08:25:56;;;;;;;12.60;6.80;;;;;;;13.62;88.54;100652.08;272453;1270;23459;-84
2024/04/11 08:31:57;;;;;;;10.40;6.90;;;;;;;13.84;88.22;100647.45;271553;1270;23035;-82
2024/04/11 08:38:03;;;;;;;11.10;6.40;;;;;;;14.08;87.58;100640.30;270676;1270;24691;-83
2024/04/11 08:44:41;;;;;;;8.50;6.10;;;;;;;14.40;87.63;100635.85;272583;1269;22280;-83
2024/04/11 08:52:01;;;;;;;10.30;6.40;;;;;;;14.76;86.92;100634.33;273303;1268;22276;-83
2024/04/11 08:58:05;;;;;;;12.90;5.60;;;;;;;14.92;84.62;100627.48;273111;1270;22414;-83
2024/04/11 09:04:08;;;;;;;14.70;6.50;;;;;;;14.91;83.08;100631.80;272811;1270;23130;-84
2024/04/11 09:10:28;;;;;;;14.70;6.20;;;;;;;14.91;83.13;100633.44;272649;1267;23903;-82
2024/04/11 09:17:00;;;;;;;14.00;7.30;;;;;;;15.29;83.49;100638.60;271553;1270;23162;-82
2024/04/11 09:23:43;;;;;;;11.10;6.60;;;;;;;15.38;80.26;100643.17;272244;1270;22592;-83
2024/04/11 09:30:06;;;;;;;9.70;5.00;;;;;;;15.49;79.65;100644.65;272967;1270;22451;-83
2024/04/11 09:36:28;;;;;;;8.40;5.10;;;;;;;15.59;78.37;100642.15;271518;1270;22851;-83
2024/04/11 09:42:46;;;;;;;7.60;3.80;;;;;;;15.95;78.06;100634.52;272594;1270;23179;-84
2024/04/11 09:48:51;;;;;;;8.80;4.60;;;;;;;16.31;77.40;100630.23;272318;1270;22279;-83
2024/04/11 09:55:13;;;;;;;;;;;;;;;;;;;;;
2024/04/11 10:01:31;;;;;;;8.90;4.40;;;;;;;16.41;73.16;100632.29;271751;1270;23832;-83
2024/04/11 10:07:41;;;;;;;11.30;4.60;;;;;;;16.71;72.29;100628.98;271551;1270;22950;-83
2024/04/11 10:13:44;;;;;;;8.00;4.00;;;;;;;16.97;71.67;100630.39;271282;1270;22464;-84
2024/04/11 10:20:32;;;;;;;12.00;4.20;;;;;;;17.10;71.34;100620.65;271327;1270;22284;-85
2024/04/11 10:26:33;;;;;;;7.30;3.30;;;;;;;17.15;70.57;100621.81;272461;1269;23099;-85
2024/04/11 10:32:39;;;;;;;9.10;4.00;;;;;;;17.10;67.69;100622.73;273103;1270;23382;-84
2024/04/11 10:39:35;;;;;;;8.10;3.70;;;;;;;17.13;68.08;100619.10;272013;1270;23536;-84
2024/04/11 10:45:38;;;;;;;9.00;3.60;;;;;;;17.37;66.84;100615.63;272830;1263;22494;-86
2024/04/11 10:51:40;;;;;;;9.10;4.10;;;;;;;17.29;65.19;100615.16;272551;1270;22569;-82
2024/04/11 10:57:44;;;;;;;8.90;3.20;;;;;;;17.50;65.75;100615.61;271629;1270;23662;-84
2024/04/11 11:09:53;;;;;;;8.90;3.90;;;;;;;17.95;63.94;100603.55;270742;1260;22544;-83
2024/04/11 11:15:59;;;;;;;9.30;3.80;;;;;;;18.01;63.35;100605.34;271986;1270;22554;-84
2024/04/11 11:22:00;;;;;;;6.70;4.30;;;;;;;18.11;62.28;100602.38;272299;1269;22475;-85
2024/04/11 11:28:01;;;;;;;5.80;4.20;;;;;;;18.20;61.38;100598.72;272842;1270;22567;-83
2024/04/11 11:34:27;;;;;;;7.70;4.40;;;;;;;18.32;61.32;100596.83;271061;1269;22589;-84
2024/04/11 11:40:40;;;;;;;9.50;3.60;;;;;;;18.58;60.76;100587.13;272951;1270;22396;-86
2024/04/11 11:47:07;;;;;;;8.10;3.80;;;;;;;18.69;60.54;100583.28;272076;1269;22447;-84
2024/04/11 11:53:49;;;;;;;8.40;3.90;;;;;;;18.36;60.46;100580.36;273118;1270;22287;-84
2024/04/11 12:00:19;;;;;;;7.40;4.40;;;;;;;18.36;60.37;100577.04;272147;1270;22296;-85
2024/04/11 12:07:24;;;;;;;6.80;3.90;;;;;;;18.31;59.81;100572.18;271237;1267;22565;-83
2024/04/11 12:13:34;;;;;;;6.70;4.00;;;;;;;18.19;59.52;100567.92;269946;1270;22562;-84
2024/04/11 12:20:15;;;;;;;9.30;4.00;;;;;;;18.12;59.23;100562.88;271462;1270;22787;-84
2024/04/11 12:26:16;;;;;;;6.50;3.60;;;;;;;18.25;60.07;100557.17;271499;1270;22368;-85
2024/04/11 12:32:18;;;;;;;8.60;3.90;;;;;;;18.27;59.01;100554.66;272150;1270;22396;-85
2024/04/11 12:38:20;;;;;;;7.80;4.30;;;;;;;18.33;59.01;100549.93;272453;1270;22296;-84
2024/04/11 12:45:07;;;;;;;7.40;4.00;;;;;;;18.53;58.95;100542.49;271989;1270;22353;-84
2024/04/11 12:51:30;;;;;;;6.10;3.30;;;;;;;18.54;58.12;100540.92;270766;1270;22568;-84
2024/04/11 12:58:05;;;;;;;8.50;4.00;;;;;;;18.55;58.17;100537.91;270148;1269;23574;-84
2024/04/11 13:04:24;;;;;;;5.90;4.00;;;;;;;18.59;57.82;100531.20;270869;1264;23792;-84
2024/04/11 13:10:24;;;;;;;6.80;3.90;;;;;;;18.37;57.53;100520.58;272139;1270;25391;-85
2024/04/11 13:16:25;;;;;;;8.40;3.10;;;;;;;18.17;57.63;100518.09;272330;1269;22307;-87
2024/04/11 13:22:27;;;;;;;11.50;4.20;;;;;;;18.22;58.27;100519.85;272528;1270;22498;-84
2024/04/11 13:28:31;;;;;;;8.70;3.60;;;;;;;18.18;57.66;100516.27;272894;1259;23205;-86
2024/04/11 13:34:39;;;;;;;7.80;4.00;;;;;;;18.05;57.51;100510.59;272151;1270;22461;-85
2024/04/11 13:41:31;;;;;;;7.90;5.30;;;;;;;18.05;57.27;100502.98;272209;1270;23033;-84
2024/04/11 13:47:37;;;;;;;12.80;5.80;;;;;;;17.94;56.71;100500.40;271969;1259;23296;-84
2024/04/11 13:53:44;;;;;;;8.10;5.10;;;;;;;17.91;57.16;100492.07;271283;1270;22549;-84
2024/04/11 13:59:45;;;;;;;8.30;4.60;;;;;;;18.08;57.41;100484.70;270880;1269;23681;-84
2024/04/11 14:12:13;;;;;;;10.80;6.20;;;;;;;18.53;57.89;100489.10;272225;1270;22365;-83
2024/04/11 14:18:28;;;;;;;12.00;5.00;;;;;;;18.52;57.36;100485.92;272474;1270;22591;-84
2024/04/11 14:31:11;;;;;;;10.30;4.80;;;;;;;18.71;56.98;100478.37;272758;1270;23717;-84
2024/04/11 14:43:30;;;;;;;7.70;4.50;;;;;;;18.69;56.64;100471.94;272030;1270;22546;-84
2024/04/11 14:49:34;;;;;;;8.10;4.80;;;;;;;18.72;56.45;100468.78;271913;1270;22556;-84
2024/04/11 14:55:35;;;;;;;10.40;3.90;;;;;;;18.74;57.42;100461.09;271303;1270;23358;-85
2024/04/11 15:01:43;;;;;;;9.00;4.30;;;;;;;18.69;56.40;100458.70;273113;1270;22453;-84
2024/04/11 15:07:44;;;;;;;10.50;3.90;;;;;;;18.56;56.68;100455.36;272344;1270;22630;-85
2024/04/11 15:13:45;;;;;;;11.80;3.70;;;;;;;18.47;57.12;100447.58;271960;1270;22361;-85
2024/04/11 15:19:56;;;;;;;8.40;3.70;;;;;;;18.42;56.86;100445.50;271977;1270;22566;-83
2024/04/11 15:26:16;;;;;;;7.10;3.60;;;;;;;18.32;57.37;100444.17;271328;1270;24289;-86
2024/04/11 15:32:57;;;;;;;7.00;4.30;;;;;;;18.14;57.97;100443.96;272265;1270;23616;-83
2024/04/11 15:39:00;;;;;;;5.40;3.90;;;;;;;17.94;57.11;100447.52;264416;1270;10001785;-84
2024/04/11 15:45:22;;;;;;;6.10;3.50;;;;;;;17.71;56.98;100445.35;272723;1269;22337;-84
2024/04/11 15:51:23;;;;;;;6.50;3.70;;;;;;;17.58;58.22;100446.39;272658;1270;22303;-84
2024/04/11 15:57:30;;;;;;;7.90;4.00;;;;;;;17.47;57.65;100443.23;272956;1270;22479;-84
2024/04/11 16:03:37;;;;;;;6.90;3.20;;;;;;;17.32;57.84;100438.77;273025;1270;22279;-85
2024/04/11 16:09:46;;;;;;;6.70;4.00;;;;;;;17.12;58.89;100435.45;273056;1266;22481;-84
2024/04/11 16:15:56;;;;;;;5.70;3.80;;;;;;;16.95;58.80;100433.42;272927;1270;22573;-83
2024/04/11 16:22:19;;;;;;;7.20;4.00;;;;;;;16.81;60.30;100431.65;272868;1270;22256;-84
2024/04/11 16:28:39;;;;;;;8.50;3.40;;;;;;;16.67;60.67;100429.39;272607;1270;22355;-84
2024/04/11 16:34:43;;;;;;;9.90;4.20;;;;;;;16.50;61.04;100428.98;270818;1269;22565;-83
2024/04/11 16:41:06;;;;;;;5.80;3.20;;;;;;;16.34;62.24;100426.73;272483;1270;23482;-84
2024/04/11 16:47:21;;;;;;;9.90;4.90;;;;;;;16.13;63.61;100428.47;272782;1269;22439;-83
2024/04/11 16:53:26;;;;;;;4.80;3.10;;;;;;;15.80;62.70;100428.70;272902;1270;23658;-83
2024/04/11 17:00:15;;;;;;;7.80;3.90;;;;;;;15.62;63.01;100426.65;272753;1269;22421;-83
2024/04/11 17:06:17;;;;;;;9.30;4.00;;;;;;;15.49;63.88;100428.21;272901;1270;22454;-83
2024/04/11 17:12:17;;;;;;;7.30;3.90;;;;;;;15.33;63.86;100424.64;273063;1269;22345;-85
2024/04/11 17:18:42;;;;;;;7.40;3.70;;;;;;;15.18;64.01;100426.39;272641;1270;22605;-83
2024/04/11 17:24:51;;;;;;;9.50;5.40;;;;;;;14.97;64.69;100425.73;272912;1271;22682;-84
2024/04/11 17:31:32;;;;;;;18.70;7.30;;;;;;;14.78;66.82;100429.20;273313;1269;22271;-84
2024/04/11 17:38:24;;;;;;;14.80;6.10;;;;;;;14.52;67.26;100432.77;273004;1270;22449;-83
2024/04/11 17:50:51;;;;;;;8.50;5.30;;;;;;;13.91;68.17;100440.60;272702;1270;23613;-83
2024/04/11 17:56:54;;;;;;;10.50;5.50;;;;;;;13.66;68.92;100449.81;273074;1270;22429;-83
2024/04/11 18:03:02;;;;;;;12.80;6.50;;;;;;;13.40;69.81;100460.62;272742;1270;23618;-84
2024/04/11 18:09:44;;;;;;;11.60;6.10;;;;;;;13.08;70.79;100465.83;272669;1270;23472;-82
2024/04/11 18:16:09;;;;;;;9.80;4.90;;;;;;;12.77;72.12;100470.99;272700;1269;22408;-83
2024/04/11 18:22:11;;;;;;;15.30;7.10;;;;;;;12.44;73.07;100476.02;271834;1272;23815;-82
2024/04/11 18:28:33;;;;;;;12.60;7.40;;;;;;;12.25;73.86;100477.13;271316;1270;22529;-83
2024/04/11 18:34:35;;;;;;;18.00;10.00;;;;;;;12.08;74.74;100474.67;272596;1272;22446;-82
2024/04/11 18:40:39;;;;;;;18.70;8.90;;;;;;;11.96;75.36;100477.10;272796;1270;22500;-84
2024/04/11 18:47:23;;;;;;;13.80;8.30;;;;;;;11.76;76.25;100475.80;272155;1270;22528;-83
2024/04/11 18:53:24;;;;;;;13.10;7.90;;;;;;;11.55;77.34;100479.61;271832;1270;22661;-82
2024/04/11 18:59:51;;;;;;;12.50;8.40;;;;;;;11.35;77.97;100474.41;271267;1270;23427;-82
2024/04/11 19:06:16;;;;;;;12.70;7.50;;;;;;;11.18;78.68;100475.14;272937;1270;22300;-83
2024/04/11 19:12:20;;;;;;;11.00;7.70;;;;;;;11.00;79.73;100479.11;270929;1270;22383;-82
2024/04/11 19:18:33;;;;;;;15.00;7.90;;;;;;;10.84;80.49;100484.96;272677;1270;22331;-82
2024/04/11 19:24:43;;;;;;;13.70;8.00;;;;;;;10.69;81.11;100489.29;272621;1270;22481;-82
2024/04/11 19:30:46;;;;;;;15.30;9.00;;;;;;;10.48;81.73;100491.08;273085;1269;22405;-82
2024/04/11 19:36:47;;;;;;;13.70;7.90;;;;;;;10.26;82.74;100499.38;272907;1266;22378;-82
2024/04/11 19:43:09;;;;;;;15.00;8.90;;;;;;;10.03;83.35;100508.98;272835;1269;22458;-82
2024/04/11 19:49:19;;;;;;;13.20;8.70;;;;;;;9.83;83.73;100512.17;273161;1269;23035;-82
2024/04/11 19:56:00;;;;;;;17.30;11.40;;;;;;;9.73;85.09;100514.84;272762;1269;23531;-82
2024/04/11 20:02:24;;;;;;;17.80;11.30;;;;;;;9.69;85.56;100517.27;273040;1269;23605;-81
2024/04/11 20:08:30;;;;;;;22.80;13.30;;;;;;;9.61;85.98;100519.70;272914;1269;22368;-81
2024/04/11 20:14:32;;;;;;;20.50;12.00;;;;;;;9.46;86.29;100520.04;272808;1269;22399;-82
2024/04/11 20:20:33;;;;;;;22.20;12.70;;;;;;;9.29;86.93;100517.66;272258;1269;23427;-81
2024/04/11 20:26:43;;;;;;;22.00;13.10;;;;;;;9.21;87.69;100524.42;272499;1269;23465;-81
2024/04/11 20:33:20;;;;;;;20.10;11.20;;;;;;;9.07;86.59;100526.20;272231;1269;27138;-82
2024/04/11 20:39:27;;;;;;;22.90;12.00;;;;;;;8.88;88.20;100524.80;271891;1269;22989;-81
2024/04/11 20:45:45;;;;;;;18.80;12.10;;;;;;;8.84;89.16;100527.27;272787;1266;22383;-82
2024/04/11 21:38:08;;;;;;;25.50;15.90;;;;;;;7.91;92.72;100563.85;272361;1269;22451;-82
2024/04/11 21:44:28;;;;;;;22.30;15.30;;;;;;;7.84;93.44;100573.34;272779;1269;22579;-83
2024/04/11 21:50:36;;;;;;;26.70;17.70;;;;;;;7.78;93.62;100578.36;271825;1269;22616;-82
2024/04/11 21:56:50;;;;;;;26.50;15.70;;;;;;;7.71;93.72;100577.97;270671;1269;22618;-83
2024/04/11 22:02:51;;;;;;;24.30;15.40;;;;;;;7.63;94.21;100576.92;271761;1269;23398;-83
2024/04/11 22:08:54;;;;;;;31.30;18.30;;;;;;;7.52;94.38;100576.35;273064;1269;22227;-83
2024/04/11 22:14:59;;;;;;;21.90;13.30;;;;;;;7.43;94.69;100576.67;272811;1269;22246;-83
2024/04/11 22:21:11;;;;;;;24.40;15.90;;;;;;;7.32;94.87;100574.36;272532;1269;23458;-82
2024/04/11 22:27:49;;;;;;;22.30;14.50;;;;;;;7.22;95.26;100571.00;272704;1269;22276;-82
2024/04/11 22:34:14;;;;;;;28.20;17.40;;;;;;;7.14;95.54;100575.09;272769;1270;23525;-82
2024/04/11 22:40:42;;;;;;;28.90;17.20;;;;;;;7.09;95.85;100580.64;272784;1270;22279;-83
2024/04/11 22:46:46;;;;;;;21.30;14.70;;;;;;;7.02;96.25;100576.90;272901;1269;23638;-82
2024/04/11 22:53:31;;;;;;;25.80;15.30;;;;;;;6.92;96.49;100584.79;272914;1269;22414;-82
2024/04/11 22:59:35;;;;;;;25.60;17.00;;;;;;;6.86;96.65;100591.48;272834;1269;22358;-83
2024/04/11 23:05:51;;;;;;;25.60;17.10;;;;;;;6.80;96.89;100585.16;272886;1269;22435;-82
2024/04/11 23:12:01;;;;;;;24.30;14.80;;;;;;;6.74;96.85;100584.33;273026;1269;23723;-82
2024/04/11 23:18:18;;;;;;;23.30;15.30;;;;;;;6.62;96.83;100582.59;272981;1269;22301;-82
2024/04/11 23:24:42;;;;;;;25.50;16.10;;;;;;;6.49;97.17;100590.40;272912;1269;23540;-83
2024/04/11 23:31:06;;;;;;;21.70;13.90;;;;;;;6.31;96.77;100591.10;272990;1269;23218;-83
2024/04/11 23:37:34;;;;;;;23.70;16.20;;;;;;;6.25;97.83;100590.17;272973;1269;22435;-82
2024/04/11 23:44:00;;;;;;;24.60;16.70;;;;;;;6.22;97.89;100593.66;273038;1269;22386;-82
2024/04/11 23:50:46;;;;;;;;;;;;;;;;;;;;;
2024/04/11 23:56:58;;;;;;;28.40;16.00;;;;;;;6.13;98.61;100582.61;272180;1270;24171;-82
